createdAt,value
2022-11-04T00:05:02.683Z,18.21
2022-11-04T00:10:07.033Z,18.19
2022-11-04T00:15:10.862Z,18.17
2022-11-04T00:20:14.379Z,18.16
2022-11-04T00:25:18.061Z,18.15
2022-11-04T00:30:21.519Z,18.15
2022-11-04T00:35:28.615Z,18.13
2022-11-04T00:40:32.743Z,18.12
2022-11-04T00:45:36.972Z,18.10
2022-11-04T00:50:40.361Z,18.10
2022-11-04T00:55:43.845Z,18.09
2022-11-04T01:00:47.211Z,18.05
2022-11-04T01:05:50.530Z,18.04
2022-11-04T01:10:54.071Z,18.04
2022-11-04T01:16:05.526Z,18.09
2022-11-04T01:21:12.176Z,18.08
2022-11-04T01:26:24.027Z,18.03
2022-11-04T01:31:29.825Z,18.03
2022-11-04T01:36:33.242Z,18.02
2022-11-04T01:41:36.689Z,18.00
2022-11-04T01:46:47.276Z,17.99
2022-11-04T01:51:54.884Z,17.95
2022-11-04T01:57:03.272Z,17.91
2022-11-04T02:02:08.056Z,17.89
2022-11-04T02:07:12.568Z,17.87
2022-11-04T02:12:16.246Z,17.84
2022-11-04T02:17:19.803Z,17.82
2022-11-04T02:22:40.046Z,17.76
2022-11-04T02:28:02.699Z,17.74
2022-11-04T02:33:17.984Z,17.71
2022-11-04T02:38:36.222Z,17.72
2022-11-04T02:43:52.482Z,17.70
2022-11-04T02:49:08.455Z,17.69
2022-11-04T02:54:20.371Z,17.67
2022-11-04T02:59:45.097Z,17.69
2022-11-04T03:04:51.944Z,17.68
2022-11-04T03:10:01.229Z,17.64
2022-11-04T03:15:14.101Z,17.61
2022-11-04T03:20:22.790Z,17.61
2022-11-04T03:25:31.300Z,17.60
2022-11-04T03:30:44.669Z,17.63
2022-11-04T03:35:57.630Z,17.62
2022-11-04T03:41:03.359Z,17.59
2022-11-04T03:46:06.889Z,17.60
2022-11-04T03:51:10.374Z,17.66
2022-11-04T03:56:32.287Z,17.70
2022-11-04T04:01:50.668Z,17.69
2022-11-04T04:07:03.239Z,17.68
2022-11-04T04:12:16.090Z,17.73
2022-11-04T04:17:48.240Z,17.76
2022-11-04T04:23:08.666Z,17.78
2022-11-04T04:28:15.238Z,17.84
2022-11-04T04:33:20.338Z,17.88
2022-11-04T04:38:26.180Z,17.93
2022-11-04T04:43:29.678Z,17.97
2022-11-04T04:48:35.918Z,18.04
2022-11-04T04:53:43.175Z,18.10
2022-11-04T04:58:47.085Z,18.18
2022-11-04T05:03:50.745Z,18.27
2022-11-04T05:08:53.626Z,18.33
2022-11-04T05:13:58.182Z,18.43
2022-11-04T05:19:01.386Z,18.54
2022-11-04T05:24:04.951Z,18.65
2022-11-04T05:29:10.105Z,18.79
2022-11-04T05:34:14.568Z,18.97
2022-11-04T05:39:18.420Z,19.25
2022-11-04T05:44:22.064Z,20.18
2022-11-04T05:49:25.623Z,20.29
2022-11-04T05:54:28.941Z,20.24
2022-11-04T05:59:32.166Z,20.38
2022-11-04T06:04:35.446Z,20.50
2022-11-04T06:09:38.700Z,20.77
2022-11-04T06:14:43.057Z,20.84
2022-11-04T06:19:47.072Z,20.84
2022-11-04T06:24:50.577Z,20.84
2022-11-04T06:29:54.476Z,20.97
2022-11-04T06:35:13.649Z,21.35
2022-11-04T06:40:20.755Z,21.85
2022-11-04T06:45:24.041Z,22.13
2022-11-04T06:50:28.045Z,22.18
2022-11-04T06:55:31.454Z,22.01
2022-11-04T07:00:34.623Z,21.87
2022-11-04T07:05:37.910Z,21.72
2022-11-04T07:10:41.922Z,21.63
2022-11-04T07:15:46.302Z,21.56
2022-11-04T07:20:49.612Z,21.52
2022-11-04T07:25:53.081Z,21.53
2022-11-04T07:30:58.168Z,21.63
2022-11-04T07:36:11.223Z,21.63
2022-11-04T07:41:15.223Z,21.73
2022-11-04T07:46:19.995Z,21.80
2022-11-04T07:51:26.532Z,22.03
2022-11-04T07:56:34.389Z,22.03
2022-11-04T08:01:37.908Z,22.17
2022-11-04T08:06:41.402Z,22.24
2022-11-04T08:11:45.165Z,22.37
2022-11-04T08:16:50.919Z,22.39
2022-11-04T08:21:54.534Z,22.36
2022-11-04T08:26:57.832Z,22.15
2022-11-04T08:32:02.871Z,21.97
2022-11-04T08:37:13.269Z,22.01
2022-11-04T08:42:16.476Z,22.16
2022-11-04T08:47:19.767Z,22.35
2022-11-04T08:52:23.132Z,22.60
2022-11-04T08:57:26.527Z,22.96
2022-11-04T09:02:29.907Z,23.10
2022-11-04T09:07:33.471Z,23.22
2022-11-04T09:12:37.279Z,23.25
2022-11-04T09:17:41.204Z,23.29
2022-11-04T09:22:45.953Z,23.20
2022-11-04T09:27:49.670Z,23.08
2022-11-04T09:32:53.154Z,22.95
2022-11-04T09:37:56.419Z,22.90
2022-11-04T09:43:14.946Z,22.79
2022-11-04T09:48:42.190Z,22.66
2022-11-04T09:53:47.970Z,22.54
2022-11-04T09:58:54.607Z,22.47
2022-11-04T10:04:03.721Z,22.48
2022-11-04T10:09:39.221Z,22.44
2022-11-04T10:14:48.956Z,22.43
2022-11-04T10:19:55.519Z,22.45
2022-11-04T10:25:14.180Z,22.47
2022-11-04T10:30:23.968Z,22.45
2022-11-04T10:36:05.960Z,22.39
2022-11-04T10:41:24.805Z,22.33
2022-11-04T10:46:48.988Z,22.32
2022-11-04T10:51:57.116Z,22.37
2022-11-04T10:57:02.757Z,22.37
2022-11-04T11:02:06.847Z,22.34
2022-11-04T11:07:13.170Z,22.40
2022-11-04T11:12:48.714Z,22.45
2022-11-04T11:17:40.186Z,22.46
2022-11-04T11:22:46.162Z,22.39
2022-11-04T11:27:58.575Z,22.35
2022-11-04T11:33:03.541Z,22.29
2022-11-04T11:38:19.033Z,22.26
2022-11-04T11:43:32.285Z,22.26
2022-11-04T11:48:44.185Z,22.24
2022-11-04T11:54:07.673Z,22.20
2022-11-04T12:10:52.008Z,22.27
2022-11-04T12:16:13.780Z,22.28
2022-11-04T12:21:26.860Z,22.26
2022-11-04T12:27:04.709Z,22.27
2022-11-04T12:32:17.195Z,22.27
2022-11-04T12:37:23.448Z,22.32
2022-11-04T12:42:38.789Z,22.29
2022-11-04T12:47:45.466Z,22.26
2022-11-04T12:53:27.484Z,22.28
2022-11-04T12:58:36.620Z,22.22
2022-11-04T13:03:51.023Z,22.18
2022-11-04T13:09:17.748Z,22.12
2022-11-04T13:14:26.910Z,22.06
2022-11-04T13:19:34.292Z,22.01
2022-11-04T13:24:49.386Z,21.95
2022-11-04T13:30:17.768Z,21.88
2022-11-04T13:35:33.198Z,21.82
2022-11-04T13:40:50.232Z,21.78
2022-11-04T13:45:56.023Z,21.72
2022-11-04T13:51:13.434Z,21.64
2022-11-04T13:56:45.841Z,21.59
2022-11-04T14:01:49.046Z,21.50
2022-11-04T14:07:01.734Z,21.41
2022-11-04T14:12:11.044Z,21.32
2022-11-04T14:17:33.095Z,21.20
2022-11-04T14:22:38.094Z,21.11
2022-11-04T14:27:41.765Z,20.95
2022-11-04T14:32:45.279Z,20.82
2022-11-04T14:37:55.898Z,20.71
2022-11-04T14:43:00.255Z,20.59
2022-11-04T14:48:18.459Z,20.46
2022-11-04T14:53:37.418Z,20.32
2022-11-04T14:59:02.191Z,20.18
2022-11-04T15:04:31.806Z,20.08
2022-11-04T15:09:41.515Z,19.97
2022-11-04T15:14:45.189Z,19.90
2022-11-04T15:19:52.541Z,19.84
2022-11-04T15:24:57.139Z,19.78
2022-11-04T15:30:03.617Z,19.75
2022-11-04T15:35:13.255Z,19.67
2022-11-04T15:40:17.499Z,19.64
2022-11-04T15:45:28.752Z,19.59
2022-11-04T15:50:32.162Z,19.55
2022-11-04T15:55:37.879Z,19.53
2022-11-04T16:00:43.526Z,19.51
2022-11-04T16:06:02.503Z,19.49
2022-11-04T16:11:19.016Z,19.46
2022-11-04T16:16:28.014Z,19.43
2022-11-04T16:21:35.357Z,19.39
2022-11-04T16:26:42.032Z,19.36
2022-11-04T16:31:45.338Z,19.34
2022-11-04T16:36:48.494Z,19.32
2022-11-04T16:41:52.041Z,19.31
2022-11-04T16:46:55.999Z,19.29
2022-11-04T16:52:03.302Z,19.26
2022-11-04T16:57:06.964Z,19.22
2022-11-04T17:02:36.726Z,19.18
2022-11-04T17:07:52.892Z,19.17
2022-11-04T17:12:58.849Z,19.13
2022-11-04T17:18:02.301Z,19.13
2022-11-04T17:23:05.653Z,19.11
2022-11-04T17:28:08.939Z,19.06
2022-11-04T17:33:17.521Z,19.05
2022-11-04T17:38:21.423Z,19.04
2022-11-04T17:43:25.869Z,19.05
2022-11-04T17:48:29.180Z,19.06
2022-11-04T17:53:32.283Z,19.03
2022-11-04T17:58:35.304Z,18.96
2022-11-04T18:03:38.940Z,18.96
2022-11-04T18:08:42.541Z,18.98
2022-11-04T18:13:45.792Z,18.96
2022-11-04T18:18:49.528Z,18.94
2022-11-04T18:23:54.611Z,18.92
2022-11-04T18:28:58.625Z,18.89
2022-11-04T18:34:06.871Z,18.86
2022-11-04T18:39:13.837Z,18.82
2022-11-04T18:44:19.598Z,18.78
2022-11-04T18:49:22.915Z,18.76
2022-11-04T18:54:25.795Z,18.72
2022-11-04T18:59:29.066Z,18.69
2022-11-04T19:04:33.359Z,18.69
2022-11-04T19:09:46.645Z,18.64
2022-11-04T19:14:50.981Z,18.63
2022-11-04T19:19:54.229Z,18.62
2022-11-04T19:24:57.788Z,18.65
2022-11-04T19:30:01.049Z,18.64
2022-11-04T19:35:09.058Z,18.64
2022-11-04T19:40:14.722Z,18.61
2022-11-04T19:45:18.654Z,18.62
2022-11-04T19:50:22.486Z,18.64
2022-11-04T19:55:25.855Z,18.67
2022-11-04T20:00:33.187Z,18.68
2022-11-04T20:05:38.738Z,18.64
2022-11-04T20:10:43.353Z,18.61
2022-11-04T20:15:46.941Z,18.61
2022-11-04T20:20:50.396Z,18.59
2022-11-04T20:25:53.746Z,18.56
2022-11-04T20:30:56.936Z,18.51
2022-11-04T20:36:03.313Z,18.50
2022-11-04T20:41:09.374Z,18.45
2022-11-04T20:46:21.493Z,18.46
2022-11-04T20:51:28.206Z,18.44
2022-11-04T20:56:33.945Z,18.40
2022-11-04T21:01:43.882Z,18.38
2022-11-04T21:06:50.036Z,18.36
2022-11-04T21:11:53.549Z,18.38
2022-11-04T21:16:59.173Z,18.37
2022-11-04T21:22:05.133Z,18.42
2022-11-04T21:27:11.794Z,18.45
2022-11-04T21:32:15.079Z,18.44
2022-11-04T21:37:18.066Z,18.42
2022-11-04T21:42:21.301Z,18.41
2022-11-04T21:47:24.327Z,18.39
2022-11-04T21:52:28.002Z,18.38
2022-11-04T21:57:31.553Z,18.39
2022-11-04T22:02:37.521Z,18.34
2022-11-04T22:07:41.485Z,18.28
2022-11-04T22:12:50.976Z,18.24
2022-11-04T22:17:55.017Z,18.25
2022-11-04T22:22:58.681Z,18.25
2022-11-04T22:28:01.987Z,18.24
2022-11-04T22:33:05.403Z,18.23
2022-11-04T22:38:08.443Z,18.16
2022-11-04T22:43:12.638Z,18.14
2022-11-04T22:48:16.366Z,18.15
2022-11-04T22:53:19.692Z,18.11
2022-11-04T22:58:22.961Z,18.12
2022-11-04T23:03:26.329Z,18.12
2022-11-04T23:08:31.009Z,18.14
2022-11-04T23:13:34.301Z,18.11
2022-11-04T23:18:37.909Z,18.10
2022-11-04T23:23:41.199Z,18.12
2022-11-04T23:28:44.458Z,18.11
2022-11-04T23:33:47.941Z,18.09
2022-11-04T23:38:51.464Z,18.07
2022-11-04T23:43:55.496Z,18.04
2022-11-04T23:48:59.006Z,18.04
2022-11-04T23:54:02.257Z,18.08
2022-11-04T23:59:05.689Z,18.05
